createdAt,value
2023-03-06T00:00:29.710Z,99956.66
2023-03-06T00:02:57.224Z,99962.53
2023-03-06T00:05:27.104Z,99956.72
2023-03-06T00:07:54.495Z,99956.63
2023-03-06T00:10:24.841Z,99956.47
2023-03-06T00:12:53.019Z,99957.91
2023-03-06T00:15:20.751Z,99950.88
2023-03-06T00:17:48.189Z,99945.84
2023-03-06T00:20:15.592Z,99939.75
2023-03-06T00:22:43.074Z,99946.63
2023-03-06T00:25:15.873Z,99949.53
2023-03-06T00:27:43.000Z,99944.69
2023-03-06T00:30:13.772Z,99943.09
2023-03-06T00:32:43.014Z,99953.38
2023-03-06T00:35:11.360Z,99944.62
2023-03-06T00:37:38.923Z,99947.03
2023-03-06T00:40:08.229Z,99943.69
2023-03-06T00:42:35.893Z,99940.06
2023-03-06T00:45:03.229Z,99935.59
2023-03-06T00:47:30.413Z,99940.53
2023-03-06T00:49:58.264Z,99938.09
2023-03-06T00:52:25.359Z,99932.09
2023-03-06T00:54:52.429Z,99932.94
2023-03-06T00:57:19.823Z,99932.09
2023-03-06T00:59:46.976Z,99920.31
2023-03-06T01:02:14.298Z,99927.78
2023-03-06T01:04:41.780Z,99923.50
2023-03-06T01:07:09.012Z,99920.25
2023-03-06T01:09:36.320Z,99907.59
2023-03-06T01:12:03.855Z,99914.16
2023-03-06T01:14:31.983Z,99914.38
2023-03-06T01:16:59.189Z,99913.31
2023-03-06T01:19:26.696Z,99912.56
2023-03-06T01:21:53.839Z,99906.66
2023-03-06T01:24:20.957Z,99910.66
2023-03-06T01:26:48.343Z,99896.88
2023-03-06T01:29:15.450Z,99901.97
2023-03-06T01:31:42.919Z,99901.78
2023-03-06T01:34:10.334Z,99893.41
2023-03-06T01:36:37.705Z,99893.91
2023-03-06T01:39:05.030Z,99893.97
2023-03-06T01:41:32.965Z,99890.66
2023-03-06T01:44:00.194Z,99897.50
2023-03-06T01:46:33.747Z,99890.62
2023-03-06T01:49:05.615Z,99891.09
2023-03-06T01:51:37.831Z,99886.69
2023-03-06T01:54:09.177Z,99881.44
2023-03-06T01:56:36.780Z,99882.09
2023-03-06T01:59:04.648Z,99882.72
2023-03-06T02:01:32.189Z,99884.03
2023-03-06T02:04:00.724Z,99880.94
2023-03-06T02:06:28.904Z,99887.28
2023-03-06T02:08:56.100Z,99882.62
2023-03-06T02:11:25.139Z,99891.25
2023-03-06T02:13:54.081Z,99883.47
2023-03-06T02:16:25.557Z,99882.09
2023-03-06T02:18:53.199Z,99881.44
2023-03-06T02:21:28.397Z,99879.63
2023-03-06T02:24:32.349Z,99877.72
2023-03-06T02:27:01.072Z,99872.06
2023-03-06T02:29:29.730Z,99876.53
2023-03-06T02:31:57.974Z,99875.53
2023-03-06T02:34:25.530Z,99876.22
2023-03-06T02:36:57.505Z,99876.12
2023-03-06T02:39:27.066Z,99883.94
2023-03-06T02:41:54.838Z,99881.13
2023-03-06T02:44:22.960Z,99871.50
2023-03-06T02:46:50.131Z,99873.31
2023-03-06T02:49:17.625Z,99880.22
2023-03-06T02:51:44.912Z,99880.88
2023-03-06T02:54:12.469Z,99876.50
2023-03-06T02:56:39.954Z,99882.44
2023-03-06T02:59:07.760Z,99876.50
2023-03-06T03:01:35.045Z,99880.56
2023-03-06T03:04:03.335Z,99879.97
2023-03-06T03:06:30.576Z,99870.34
2023-03-06T03:08:57.968Z,99874.41
2023-03-06T03:11:25.460Z,99871.69
2023-03-06T03:13:52.658Z,99867.56
2023-03-06T03:16:20.983Z,99868.84
2023-03-06T03:18:50.298Z,99875.56
2023-03-06T03:21:18.260Z,99862.34
2023-03-06T03:23:47.140Z,99866.59
2023-03-06T03:26:17.332Z,99868.59
2023-03-06T03:28:45.460Z,99865.50
2023-03-06T03:31:13.868Z,99873.88
2023-03-06T03:33:41.703Z,99859.13
2023-03-06T03:36:09.738Z,99859.59
2023-03-06T03:38:38.087Z,99849.66
2023-03-06T03:41:06.071Z,99849.00
2023-03-06T03:43:33.365Z,99855.53
2023-03-06T03:46:00.720Z,99846.16
2023-03-06T03:48:28.394Z,99853.66
2023-03-06T03:50:55.916Z,99848.41
2023-03-06T03:53:23.660Z,99860.19
2023-03-06T03:55:51.445Z,99850.16
2023-03-06T03:58:19.249Z,99854.88
2023-03-06T04:00:47.184Z,99854.56
2023-03-06T04:03:14.887Z,99843.75
2023-03-06T04:05:42.114Z,99847.28
2023-03-06T04:08:09.694Z,99841.25
2023-03-06T04:10:39.426Z,99837.78
2023-03-06T04:13:09.580Z,99836.97
2023-03-06T04:15:38.180Z,99844.91
2023-03-06T04:18:05.521Z,99853.28
2023-03-06T04:20:33.104Z,99853.28
2023-03-06T04:23:00.770Z,99859.59
2023-03-06T04:25:27.976Z,99857.78
2023-03-06T04:27:55.208Z,99858.47
2023-03-06T04:30:22.863Z,99853.16
2023-03-06T04:32:50.513Z,99852.22
2023-03-06T04:35:17.827Z,99844.12
2023-03-06T04:37:45.746Z,99839.03
2023-03-06T04:40:29.740Z,99849.59
2023-03-06T04:42:58.327Z,99848.56
2023-03-06T04:45:27.004Z,99842.41
2023-03-06T04:47:54.357Z,99844.25
2023-03-06T04:50:22.781Z,99840.34
2023-03-06T04:52:50.294Z,99838.12
2023-03-06T04:55:18.449Z,99832.13
2023-03-06T04:57:47.084Z,99837.31
2023-03-06T05:00:19.213Z,99838.09
2023-03-06T05:02:47.425Z,99836.88
2023-03-06T05:05:15.511Z,99830.06
2023-03-06T05:07:43.127Z,99836.34
2023-03-06T05:10:12.820Z,99838.72
2023-03-06T05:12:40.154Z,99840.66
2023-03-06T05:15:08.210Z,99828.19
2023-03-06T05:17:35.811Z,99826.69
2023-03-06T05:20:06.224Z,99834.22
2023-03-06T05:22:34.473Z,99832.97
2023-03-06T05:25:03.074Z,99837.44
2023-03-06T05:27:30.888Z,99835.13
2023-03-06T05:29:58.170Z,99840.72
2023-03-06T05:32:25.706Z,99838.41
2023-03-06T05:34:52.947Z,99823.63
2023-03-06T05:37:20.248Z,99835.56
2023-03-06T05:39:47.855Z,99828.03
2023-03-06T05:42:15.067Z,99838.41
2023-03-06T05:44:42.398Z,99834.37
2023-03-06T05:47:10.001Z,99832.97
2023-03-06T05:49:37.182Z,99834.94
2023-03-06T05:52:05.294Z,99836.91
2023-03-06T05:54:34.315Z,99842.66
2023-03-06T05:57:02.775Z,99836.16
2023-03-06T05:59:29.991Z,99852.41
2023-03-06T06:01:57.600Z,99845.50
2023-03-06T06:04:26.311Z,99844.09
2023-03-06T06:06:58.146Z,99852.47
2023-03-06T06:09:26.399Z,99843.34
2023-03-06T06:12:03.728Z,99845.16
2023-03-06T06:14:33.881Z,99848.75
2023-03-06T06:17:01.272Z,99853.28
2023-03-06T06:19:30.183Z,99856.81
2023-03-06T06:21:58.602Z,99851.53
2023-03-06T06:24:26.425Z,99849.88
2023-03-06T06:26:55.764Z,99852.22
2023-03-06T06:29:23.859Z,99860.19
2023-03-06T06:31:51.504Z,99859.06
2023-03-06T06:34:19.162Z,99860.72
2023-03-06T06:36:46.638Z,99863.13
2023-03-06T06:39:16.688Z,99847.66
2023-03-06T06:41:59.487Z,99858.88
2023-03-06T06:44:30.061Z,99865.16
2023-03-06T06:49:50.613Z,99851.06
2023-03-06T06:52:18.764Z,99859.88
2023-03-06T06:54:46.447Z,99862.28
2023-03-06T06:57:14.330Z,99857.22
2023-03-06T06:59:41.649Z,99856.94
2023-03-06T07:02:12.330Z,99864.69
2023-03-06T07:04:46.368Z,99860.41
2023-03-06T07:07:20.073Z,99866.28
2023-03-06T07:09:47.343Z,99853.06
2023-03-06T07:12:14.721Z,99848.66
2023-03-06T07:14:42.414Z,99851.25
2023-03-06T07:17:10.019Z,99860.12
2023-03-06T07:19:38.600Z,99858.38
2023-03-06T07:22:07.619Z,99858.31
2023-03-06T07:24:35.126Z,99861.56
2023-03-06T07:27:02.386Z,99867.72
2023-03-06T07:29:32.305Z,99873.94
2023-03-06T07:32:00.086Z,99873.63
2023-03-06T07:34:27.293Z,99871.59
2023-03-06T07:36:54.744Z,99877.28
2023-03-06T07:39:22.158Z,99865.06
2023-03-06T07:41:49.334Z,99869.38
2023-03-06T07:44:17.343Z,99865.91
2023-03-06T07:46:44.508Z,99876.84
2023-03-06T07:49:11.843Z,99865.47
2023-03-06T07:51:39.353Z,99871.28
2023-03-06T07:54:06.507Z,99870.03
2023-03-06T07:56:35.084Z,99872.66
2023-03-06T07:59:02.889Z,99873.09
2023-03-06T08:01:30.173Z,99880.53
2023-03-06T08:03:57.816Z,99881.78
2023-03-06T08:06:27.242Z,99879.41
2023-03-06T08:08:56.456Z,99883.59
2023-03-06T08:11:26.115Z,99886.09
2023-03-06T08:13:54.956Z,99890.81
2023-03-06T08:16:24.069Z,99880.19
2023-03-06T08:18:51.648Z,99873.97
2023-03-06T08:21:21.433Z,99873.91
2023-03-06T08:23:48.810Z,99870.03
2023-03-06T08:26:18.428Z,99872.31
2023-03-06T08:28:46.031Z,99875.19
2023-03-06T08:31:38.363Z,99861.94
2023-03-06T08:34:09.066Z,99868.03
2023-03-06T08:36:36.412Z,99865.38
2023-03-06T08:39:04.594Z,99859.47
2023-03-06T08:41:32.409Z,99856.16
2023-03-06T08:43:59.492Z,99860.25
2023-03-06T08:46:27.882Z,99856.59
2023-03-06T08:48:55.345Z,99857.56
2023-03-06T08:51:22.948Z,99856.56
2023-03-06T08:53:50.798Z,99852.56
2023-03-06T08:56:21.630Z,99855.63
2023-03-06T08:58:49.321Z,99859.59
2023-03-06T09:01:19.401Z,99858.94
2023-03-06T09:03:47.251Z,99863.09
2023-03-06T09:06:14.820Z,99856.78
2023-03-06T09:08:43.968Z,99848.28
2023-03-06T09:11:12.480Z,99855.25
2023-03-06T09:13:40.057Z,99838.66
2023-03-06T09:16:08.895Z,99834.56
2023-03-06T09:18:36.738Z,99837.00
2023-03-06T09:21:04.843Z,99842.81
2023-03-06T09:23:32.753Z,99848.59
2023-03-06T09:26:03.321Z,99839.16
2023-03-06T09:28:30.423Z,99831.47
2023-03-06T09:30:57.772Z,99835.22
2023-03-06T09:33:25.605Z,99833.09
2023-03-06T09:35:56.885Z,99832.75
2023-03-06T09:38:27.783Z,99827.44
2023-03-06T09:40:57.965Z,99833.22
2023-03-06T09:43:29.515Z,99824.97
2023-03-06T09:45:58.084Z,99821.03
2023-03-06T09:48:44.146Z,99813.66
2023-03-06T09:51:15.841Z,99815.09
2023-03-06T09:53:57.425Z,99818.13
2023-03-06T09:56:31.159Z,99816.56
2023-03-06T09:59:12.722Z,99805.34
2023-03-06T10:01:42.767Z,99792.94
2023-03-06T10:04:36.394Z,99804.00
2023-03-06T10:07:12.788Z,99796.03
2023-03-06T10:09:54.016Z,99793.56
2023-03-06T10:12:39.127Z,99796.25
2023-03-06T10:15:25.897Z,99792.16
2023-03-06T10:17:53.295Z,99794.56
2023-03-06T10:20:24.721Z,99788.03
2023-03-06T10:23:11.191Z,99791.72
2023-03-06T10:25:45.597Z,99796.63
2023-03-06T10:28:29.503Z,99791.28
2023-03-06T10:30:56.944Z,99790.31
2023-03-06T10:33:27.083Z,99788.44
2023-03-06T10:35:56.260Z,99789.53
2023-03-06T10:38:29.821Z,99788.56
2023-03-06T10:41:12.143Z,99788.41
2023-03-06T10:43:42.805Z,99772.47
2023-03-06T10:46:12.501Z,99765.63
2023-03-06T10:48:42.370Z,99767.25
2023-03-06T10:51:21.642Z,99761.88
2023-03-06T10:53:56.381Z,99755.09
2023-03-06T10:56:27.677Z,99748.69
2023-03-06T10:59:11.316Z,99742.00
2023-03-06T11:01:40.893Z,99734.84
2023-03-06T11:04:29.525Z,99736.50
2023-03-06T11:07:19.384Z,99731.84
2023-03-06T11:10:02.627Z,99736.81
2023-03-06T11:12:57.226Z,99715.47
2023-03-06T11:15:26.143Z,99711.84
2023-03-06T11:18:06.147Z,99706.63
2023-03-06T11:20:54.146Z,99699.13
2023-03-06T11:23:42.507Z,99689.44
2023-03-06T11:26:16.215Z,99686.69
2023-03-06T11:28:49.602Z,99686.97
2023-03-06T11:31:21.284Z,99674.66
2023-03-06T11:34:27.389Z,99665.50
2023-03-06T11:36:58.753Z,99659.66
2023-03-06T11:39:53.288Z,99642.63
2023-03-06T11:42:26.830Z,99645.41
2023-03-06T11:45:01.331Z,99629.69
2023-03-06T11:48:23.061Z,99609.97
2023-03-06T11:50:54.082Z,99604.44
2023-03-06T11:53:23.861Z,99600.16
2023-03-06T11:56:00.338Z,99610.38
2023-03-06T11:58:37.501Z,99597.31
2023-03-06T12:01:17.477Z,99598.59
2023-03-06T12:04:00.092Z,99597.84
2023-03-06T12:06:42.933Z,99592.53
2023-03-06T12:09:13.373Z,99585.56
2023-03-06T12:12:10.783Z,99587.47
2023-03-06T12:14:56.891Z,99577.25
2023-03-06T12:17:49.119Z,99575.50
2023-03-06T12:20:38.480Z,99575.38
2023-03-06T12:23:31.045Z,99572.53
2023-03-06T12:26:17.068Z,99574.94
2023-03-06T12:29:28.484Z,99574.56
2023-03-06T12:32:04.801Z,99567.34
2023-03-06T12:34:37.936Z,99566.44
2023-03-06T12:37:11.058Z,99568.94
2023-03-06T12:39:41.210Z,99565.66
2023-03-06T12:42:11.496Z,99561.34
2023-03-06T12:44:56.319Z,99557.53
2023-03-06T12:47:27.841Z,99555.16
2023-03-06T12:49:59.246Z,99556.69
2023-03-06T12:52:30.735Z,99545.56
2023-03-06T12:55:05.032Z,99544.88
2023-03-06T12:57:34.799Z,99543.16
2023-03-06T13:00:02.312Z,99540.81
2023-03-06T13:02:52.031Z,99538.94
2023-03-06T13:05:25.839Z,99532.03
2023-03-06T13:08:08.374Z,99531.25
2023-03-06T13:10:37.095Z,99529.34
2023-03-06T13:13:29.479Z,99522.38
2023-03-06T13:16:18.349Z,99521.66
2023-03-06T13:18:57.240Z,99524.03
2023-03-06T13:21:56.628Z,99518.78
2023-03-06T13:24:27.554Z,99517.41
2023-03-06T13:27:37.954Z,99505.06
2023-03-06T13:30:45.354Z,99507.66
2023-03-06T13:33:37.218Z,99501.25
2023-03-06T13:36:16.700Z,99502.56
2023-03-06T13:38:44.098Z,99499.31
2023-03-06T13:41:23.430Z,99492.81
2023-03-06T13:43:55.407Z,99492.94
2023-03-06T13:46:29.834Z,99488.19
2023-03-06T13:49:09.252Z,99485.94
2023-03-06T13:51:41.390Z,99483.16
2023-03-06T13:54:31.196Z,99488.13
2023-03-06T13:57:53.876Z,99476.22
2023-03-06T14:00:36.378Z,99481.69
2023-03-06T14:03:51.493Z,99478.00
2023-03-06T14:06:40.756Z,99471.88
2023-03-06T14:09:33.824Z,99478.94
2023-03-06T14:12:06.970Z,99467.84
2023-03-06T14:14:44.122Z,99476.06
2023-03-06T14:17:39.125Z,99466.00
2023-03-06T14:20:17.978Z,99467.91
2023-03-06T14:22:45.129Z,99467.28
2023-03-06T14:25:25.877Z,99466.00
2023-03-06T14:27:54.973Z,99458.16
2023-03-06T14:30:26.287Z,99458.13
2023-03-06T14:32:54.912Z,99460.19
2023-03-06T14:35:29.140Z,99457.47
2023-03-06T14:38:01.746Z,99458.91
2023-03-06T14:40:44.150Z,99456.31
2023-03-06T14:43:27.783Z,99448.50
2023-03-06T14:45:59.213Z,99452.31
2023-03-06T14:48:38.615Z,99452.53
2023-03-06T14:51:06.721Z,99455.94
2023-03-06T14:53:35.028Z,99455.72
2023-03-06T14:56:06.027Z,99445.41
2023-03-06T14:58:42.151Z,99450.38
2023-03-06T15:01:11.084Z,99445.28
2023-03-06T15:03:41.508Z,99453.88
2023-03-06T15:06:15.414Z,99442.94
2023-03-06T15:08:43.307Z,99446.41
2023-03-06T15:11:10.761Z,99456.34
2023-03-06T15:13:37.992Z,99457.53
2023-03-06T15:16:23.248Z,99461.59
2023-03-06T15:18:59.555Z,99460.59
2023-03-06T15:21:35.716Z,99454.28
2023-03-06T15:24:19.427Z,99460.66
2023-03-06T15:26:51.079Z,99460.25
2023-03-06T15:29:23.101Z,99457.63
2023-03-06T15:31:50.622Z,99463.22
2023-03-06T15:34:23.421Z,99461.38
2023-03-06T15:36:57.219Z,99467.87
2023-03-06T15:39:36.583Z,99460.00
2023-03-06T15:42:26.772Z,99450.03
2023-03-06T15:44:55.736Z,99453.56
2023-03-06T15:47:23.905Z,99451.87
2023-03-06T15:49:53.139Z,99456.09
2023-03-06T15:52:21.635Z,99463.69
2023-03-06T15:54:49.145Z,99458.31
2023-03-06T15:57:25.669Z,99454.94
2023-03-06T15:59:53.839Z,99456.44
2023-03-06T16:02:22.836Z,99458.28
2023-03-06T16:04:50.790Z,99459.00
2023-03-06T16:07:18.449Z,99459.28
2023-03-06T16:09:45.675Z,99460.37
2023-03-06T16:12:18.729Z,99458.09
2023-03-06T16:14:47.668Z,99457.75
2023-03-06T16:17:15.670Z,99453.91
2023-03-06T16:19:43.626Z,99459.84
2023-03-06T16:22:10.896Z,99460.25
2023-03-06T16:24:38.594Z,99458.97
2023-03-06T16:27:06.899Z,99455.56
2023-03-06T16:29:35.089Z,99465.56
2023-03-06T16:32:03.116Z,99462.44
2023-03-06T16:34:30.386Z,99470.91
2023-03-06T16:36:57.612Z,99472.06
2023-03-06T16:39:25.133Z,99474.94
2023-03-06T16:41:52.567Z,99478.75
2023-03-06T16:44:20.623Z,99484.56
2023-03-06T16:46:49.451Z,99485.69
2023-03-06T16:49:18.211Z,99488.44
2023-03-06T16:51:45.680Z,99483.91
2023-03-06T16:54:13.527Z,99494.91
2023-03-06T16:56:41.200Z,99490.31
2023-03-06T16:59:08.543Z,99500.34
2023-03-06T17:01:36.292Z,99497.97
2023-03-06T17:04:03.819Z,99495.06
2023-03-06T17:06:31.010Z,99496.19
2023-03-06T17:08:59.745Z,99491.97
2023-03-06T17:11:27.519Z,99494.00
2023-03-06T17:13:55.406Z,99497.03
2023-03-06T17:16:23.104Z,99498.97
2023-03-06T17:18:50.602Z,99503.03
2023-03-06T17:21:17.841Z,99494.09
2023-03-06T17:23:45.812Z,99495.19
2023-03-06T17:26:18.821Z,99493.06
2023-03-06T17:28:46.751Z,99503.03
2023-03-06T17:31:16.022Z,99497.13
2023-03-06T17:33:43.739Z,99502.69
2023-03-06T17:36:12.108Z,99497.03
2023-03-06T17:38:39.286Z,99488.44
2023-03-06T17:41:07.524Z,99490.50
2023-03-06T17:43:36.770Z,99498.91
2023-03-06T17:46:06.421Z,99494.34
2023-03-06T17:48:33.875Z,99505.84
2023-03-06T17:51:01.433Z,99491.75
2023-03-06T17:53:28.618Z,99498.37
2023-03-06T17:55:58.197Z,99496.47
2023-03-06T17:58:27.046Z,99495.50
2023-03-06T18:00:54.243Z,99498.31
2023-03-06T18:03:21.848Z,99497.81
2023-03-06T18:05:58.942Z,99503.16
2023-03-06T18:08:26.412Z,99507.63
2023-03-06T18:10:59.566Z,99510.31
2023-03-06T18:13:26.983Z,99509.53
2023-03-06T18:15:54.167Z,99515.75
2023-03-06T18:18:21.410Z,99503.72
2023-03-06T18:20:48.936Z,99495.38
2023-03-06T18:23:16.129Z,99490.59
2023-03-06T18:25:43.656Z,99485.06
2023-03-06T18:28:11.188Z,99485.06
2023-03-06T18:30:41.170Z,99474.34
2023-03-06T18:33:09.170Z,99479.84
2023-03-06T18:35:37.006Z,99469.91
2023-03-06T18:38:04.216Z,99473.09
2023-03-06T18:40:31.389Z,99484.88
2023-03-06T18:42:58.882Z,99489.53
2023-03-06T18:45:26.163Z,99492.25
2023-03-06T18:47:54.724Z,99490.59
2023-03-06T18:50:22.155Z,99504.91
2023-03-06T18:52:49.315Z,99505.50
2023-03-06T18:55:16.563Z,99500.84
2023-03-06T18:57:44.024Z,99514.00
2023-03-06T19:00:11.712Z,99504.75
2023-03-06T19:02:38.915Z,99501.25
2023-03-06T19:05:06.695Z,99502.66
2023-03-06T19:07:33.855Z,99513.13
2023-03-06T19:10:01.013Z,99517.62
2023-03-06T19:12:28.485Z,99528.59
2023-03-06T19:14:55.766Z,99535.63
2023-03-06T19:17:24.962Z,99536.16
2023-03-06T19:19:52.487Z,99545.63
2023-03-06T19:22:19.653Z,99539.47
2023-03-06T19:24:48.098Z,99534.97
2023-03-06T19:27:15.897Z,99521.16
2023-03-06T19:29:43.062Z,99509.22
2023-03-06T19:32:10.475Z,99487.91
2023-03-06T19:34:38.024Z,99491.94
2023-03-06T19:37:05.188Z,99499.44
2023-03-06T19:39:32.380Z,99479.81
2023-03-06T19:41:59.865Z,99481.22
2023-03-06T19:44:27.052Z,99474.00
2023-03-06T19:46:54.113Z,99485.31
2023-03-06T19:49:24.106Z,99488.25
2023-03-06T19:51:51.338Z,99489.50
2023-03-06T19:54:23.272Z,99487.41
2023-03-06T19:56:51.028Z,99494.16
2023-03-06T19:59:18.430Z,99489.34
2023-03-06T20:01:45.656Z,99492.16
2023-03-06T20:04:13.279Z,99486.16
2023-03-06T20:06:40.724Z,99488.28
2023-03-06T20:09:09.000Z,99486.62
2023-03-06T20:11:36.717Z,99498.81
2023-03-06T20:14:05.644Z,99493.81
2023-03-06T20:16:33.278Z,99491.97
2023-03-06T20:19:01.499Z,99498.37
2023-03-06T20:21:30.568Z,99499.63
2023-03-06T20:23:58.299Z,99492.88
2023-03-06T20:26:27.109Z,99482.00
2023-03-06T20:28:54.834Z,99484.59
2023-03-06T20:31:25.143Z,99491.47
2023-03-06T20:33:54.147Z,99490.63
2023-03-06T20:36:24.235Z,99484.69
2023-03-06T20:38:51.368Z,99486.28
2023-03-06T20:41:21.323Z,99489.69
2023-03-06T20:43:49.267Z,99494.47
2023-03-06T20:46:19.910Z,99491.31
2023-03-06T20:48:49.066Z,99507.28
2023-03-06T20:51:24.332Z,99499.56
2023-03-06T20:53:55.333Z,99511.84
2023-03-06T20:56:25.595Z,99512.69
2023-03-06T20:58:53.577Z,99517.69
2023-03-06T21:01:22.963Z,99512.53
2023-03-06T21:03:50.560Z,99511.72
2023-03-06T21:06:18.617Z,99510.72
2023-03-06T21:08:46.117Z,99508.03
2023-03-06T21:11:13.565Z,99516.03
2023-03-06T21:13:41.062Z,99516.78
2023-03-06T21:16:11.423Z,99512.16
2023-03-06T21:18:39.860Z,99517.31
2023-03-06T21:21:12.546Z,99511.31
2023-03-06T21:23:40.015Z,99511.31
2023-03-06T21:26:07.538Z,99504.81
2023-03-06T21:28:34.680Z,99506.34
2023-03-06T21:31:02.589Z,99507.56
2023-03-06T21:33:30.071Z,99508.31
2023-03-06T21:35:57.277Z,99509.62
2023-03-06T21:38:24.553Z,99508.94
2023-03-06T21:40:52.584Z,99511.97
2023-03-06T21:43:19.976Z,99513.56
2023-03-06T21:45:48.787Z,99503.47
2023-03-06T21:48:16.348Z,99502.81
2023-03-06T21:50:43.509Z,99510.91
2023-03-06T21:53:10.635Z,99512.66
2023-03-06T21:55:40.405Z,99511.19
2023-03-06T21:58:07.936Z,99502.84
2023-03-06T22:00:36.512Z,99512.19
2023-03-06T22:03:04.742Z,99517.94
2023-03-06T22:05:32.081Z,99504.84
2023-03-06T22:07:59.484Z,99508.84
2023-03-06T22:10:26.902Z,99505.31
2023-03-06T22:12:54.066Z,99506.59
2023-03-06T22:15:21.900Z,99500.53
2023-03-06T22:17:49.549Z,99501.34
2023-03-06T22:20:16.950Z,99507.88
2023-03-06T22:22:44.137Z,99499.81
2023-03-06T22:25:11.986Z,99502.59
2023-03-06T22:27:39.137Z,99505.44
2023-03-06T22:30:06.982Z,99498.28
2023-03-06T22:32:34.869Z,99500.66
2023-03-06T22:35:02.076Z,99497.37
2023-03-06T22:37:29.322Z,99501.25
2023-03-06T22:39:56.679Z,99499.09
2023-03-06T22:42:23.859Z,99501.97
2023-03-06T22:44:51.150Z,99494.72
2023-03-06T22:47:18.602Z,99503.22
2023-03-06T22:49:45.726Z,99503.53
2023-03-06T22:52:15.145Z,99511.41
2023-03-06T22:54:42.721Z,99501.56
2023-03-06T22:57:09.845Z,99502.59
2023-03-06T22:59:37.009Z,99505.34
2023-03-06T23:02:04.563Z,99503.84
2023-03-06T23:04:31.812Z,99503.25
2023-03-06T23:06:59.020Z,99510.66
2023-03-06T23:09:26.853Z,99505.81
2023-03-06T23:12:12.744Z,99501.25
2023-03-06T23:14:58.446Z,99494.78
2023-03-06T23:17:43.986Z,99497.09
2023-03-06T23:20:29.895Z,99499.94
2023-03-06T23:23:15.492Z,99500.09
2023-03-06T23:25:43.553Z,99500.78
2023-03-06T23:28:11.919Z,99504.69
2023-03-06T23:30:39.933Z,99502.41
2023-03-06T23:33:07.647Z,99499.25
2023-03-06T23:35:36.550Z,99509.06
2023-03-06T23:38:03.728Z,99503.59
2023-03-06T23:40:31.585Z,99507.78
2023-03-06T23:42:59.037Z,99502.41
2023-03-06T23:45:27.387Z,99503.25
2023-03-06T23:47:54.691Z,99499.38
2023-03-06T23:50:23.099Z,99508.56
2023-03-06T23:52:54.272Z,99500.59
2023-03-06T23:55:21.755Z,99512.28
2023-03-06T23:57:48.863Z,99510.78
